Airfield :
LOGIN :

Register | Disclaimer

   EN    FR    IT 

 










Legend :    VFR   Marginal VFR   IFR   Intensive IFR   Very Intensive IFR
Visi :
Ceiling :
>= 8 km
>= 3000ft
5 to 8 km
1000 to 3000 ft
1500m to 5 km
500 to 1000 ft
800 to 1500m
200 to 500 ft
< 800m
< 200 ft
Symbols :   Thunderstorms  Fog  Heavy snow  Heavy precipitations  Wind > 20 kt
SIGMETs :     Misc.  Thunderstorms  Icing  Turbulence  Mountain Waves  Volcanic Ashes






- Airport Elevation : 72 ft
- IATA code : UDE


EHVK - Volkel Airbase

CURRENT METAR :
  • 290825Z AUTO 02015G26KT 350V060 9999 SCT038 BKN043 06/M03 Q1029 BLU

EXPIRED METARs :
  • 290755Z AUTO 02016G27KT 340V060 9999 SCT033 BKN039 06/M02 Q1029 BLU
  • 290725Z AUTO 01012KT 340V050 9999 SCT030 05/M01 Q1028 BLU
  • 290655Z AUTO 01011KT 340V050 9999 NCD 05/M01 Q1028 BLU
  • 290625Z AUTO 36010KT 340V050 9999 NCD 04/M01 Q1027 BLU
  • 290555Z AUTO 36009KT 330V030 9999 NCD 03/M00 Q1027 BLU

TAF TAF EHVK
Valid from the 29 at 05:00 until the 29 at 17:00 UTC


290404Z 2905/2917 01008KT FEW025 SCT035
BECMG 2906/2908 03018G28KT
PROB40
TEMPO 2909/2915 03019G32KT 4500 -SHRASN FEW020CB BKN025



MET'MAP, your aeronautical weather chart ! - Copyright ORBIFLY December 2007 - Disclaimer

ORBIFLY MET'MAP TEAM :

Programming & Development : Alexandra Zaïnal
Concept & original design : Baudouin d'Aumeries
Assistance for programming : Marc-Olivier Méhu
Technical & hardware support : Manuel Goepfert

Contact : metmap@orbifly.com




SOURCES & CREDITS :

   NOAA